createdAt,value
2017-11-28T00:01:22.288Z,3.40
2017-11-28T00:03:54.731Z,3.10
2017-11-28T00:06:26.429Z,3.63
2017-11-28T00:08:57.895Z,2.33
2017-11-28T00:11:29.344Z,3.00
2017-11-28T00:14:01.204Z,3.10
2017-11-28T00:16:32.631Z,3.90
2017-11-28T00:19:04.346Z,3.17
2017-11-28T00:21:36.057Z,3.00
2017-11-28T00:24:07.532Z,3.33
2017-11-28T00:26:38.939Z,2.57
2017-11-28T00:29:10.494Z,2.43
2017-11-28T00:31:41.938Z,2.37
2017-11-28T00:34:13.538Z,2.43
2017-11-28T00:36:45.204Z,2.53
2017-11-28T00:39:16.578Z,3.10
2017-11-28T00:41:49.509Z,2.80
2017-11-28T00:44:21.242Z,2.37
2017-11-28T00:46:52.721Z,2.17
2017-11-28T00:49:24.191Z,2.00
2017-11-28T00:51:55.954Z,2.10
2017-11-28T00:54:27.727Z,1.90
2017-11-28T00:56:59.189Z,2.50
2017-11-28T00:59:31.751Z,2.47
2017-11-28T01:02:04.333Z,2.37
2017-11-28T01:04:35.768Z,2.40
2017-11-28T01:07:07.491Z,1.97
2017-11-28T01:09:39.174Z,1.80
2017-11-28T01:12:10.722Z,2.13
2017-11-28T01:14:42.434Z,2.20
2017-11-28T01:17:13.888Z,2.23
2017-11-28T01:19:45.283Z,2.10
2017-11-28T01:22:16.997Z,1.50
2017-11-28T01:24:48.536Z,1.80
2017-11-28T01:27:20.102Z,2.37
2017-11-28T01:29:51.765Z,2.00
2017-11-28T01:32:23.476Z,1.53
2017-11-28T01:34:54.973Z,2.03
2017-11-28T01:37:26.697Z,1.90
2017-11-28T01:39:58.425Z,2.17
2017-11-28T01:42:29.996Z,2.13
2017-11-28T01:45:01.533Z,1.97
2017-11-28T01:47:33.341Z,2.20
2017-11-28T01:50:06.156Z,1.40
2017-11-28T01:52:37.690Z,1.93
2017-11-28T01:55:09.366Z,2.07
2017-11-28T01:57:41.646Z,1.73
2017-11-28T02:00:13.771Z,2.13
2017-11-28T02:02:45.202Z,2.27
2017-11-28T02:05:17.060Z,2.23
2017-11-28T02:07:48.494Z,2.57
2017-11-28T02:10:20.005Z,2.20
2017-11-28T02:12:51.639Z,2.57
2017-11-28T02:15:23.042Z,2.70
2017-11-28T02:17:54.435Z,2.07
2017-11-28T02:20:25.898Z,2.67
2017-11-28T02:22:58.892Z,3.00
2017-11-28T02:25:31.694Z,2.63
2017-11-28T02:28:04.638Z,3.03
2017-11-28T02:30:36.269Z,2.70
2017-11-28T02:33:08.284Z,2.60
2017-11-28T02:35:39.758Z,2.13
2017-11-28T02:38:11.427Z,2.53
2017-11-28T02:40:51.675Z,2.27
2017-11-28T02:43:23.102Z,2.10
2017-11-28T02:45:54.500Z,2.53
2017-11-28T02:48:26.273Z,2.60
2017-11-28T02:50:57.882Z,3.07
2017-11-28T02:53:29.577Z,2.70
2017-11-28T02:56:01.398Z,2.57
2017-11-28T02:58:32.868Z,3.20
2017-11-28T03:01:04.985Z,2.73
2017-11-28T03:03:37.046Z,3.37
2017-11-28T03:06:08.594Z,3.63
2017-11-28T03:08:40.972Z,3.40
2017-11-28T03:11:12.344Z,2.93
2017-11-28T03:13:44.079Z,3.90
2017-11-28T03:16:15.520Z,3.70
2017-11-28T03:18:47.022Z,3.37
2017-11-28T03:21:18.895Z,3.73
2017-11-28T03:23:50.437Z,3.20
2017-11-28T03:26:21.947Z,3.50
2017-11-28T03:28:53.821Z,3.83
2017-11-28T03:31:25.493Z,4.27
2017-11-28T03:34:00.598Z,3.80
2017-11-28T03:36:33.587Z,3.67
2017-11-28T03:39:05.723Z,3.90
2017-11-28T03:41:37.713Z,3.80
2017-11-28T03:44:09.802Z,4.27
2017-11-28T03:46:42.593Z,3.77
2017-11-28T03:49:15.422Z,4.30
2017-11-28T03:51:48.108Z,3.60
2017-11-28T03:54:20.261Z,3.83
2017-11-28T03:56:51.935Z,2.83
2017-11-28T03:59:23.498Z,3.47
2017-11-28T04:01:55.205Z,4.37
2017-11-28T04:04:26.691Z,4.33
2017-11-28T04:06:58.147Z,5.03
2017-11-28T04:09:29.819Z,3.60
2017-11-28T04:12:03.285Z,4.20
2017-11-28T04:14:34.685Z,3.97
2017-11-28T04:17:06.482Z,4.47
2017-11-28T04:19:37.890Z,4.40
2017-11-28T04:22:09.354Z,4.17
2017-11-28T04:24:41.486Z,3.70
2017-11-28T04:27:12.910Z,3.60
2017-11-28T04:29:45.548Z,4.70
2017-11-28T04:32:18.063Z,5.53
2017-11-28T04:34:49.974Z,3.53
2017-11-28T04:37:21.457Z,4.27
2017-11-28T04:39:52.886Z,3.10
2017-11-28T04:42:24.315Z,3.40
2017-11-28T04:44:55.737Z,3.53
2017-11-28T04:47:27.540Z,3.50
2017-11-28T04:49:58.980Z,3.67
2017-11-28T04:52:30.601Z,2.97
2017-11-28T04:55:02.127Z,2.80
2017-11-28T04:57:33.879Z,2.80
2017-11-28T05:00:06.140Z,2.57
2017-11-28T05:02:38.267Z,2.40
2017-11-28T05:05:10.004Z,2.70
2017-11-28T05:07:42.410Z,2.30
2017-11-28T05:10:15.874Z,2.20
2017-11-28T05:12:47.600Z,2.87
2017-11-28T05:15:19.055Z,3.10
2017-11-28T05:17:51.297Z,2.67
2017-11-28T05:20:22.735Z,3.07
2017-11-28T05:22:55.838Z,2.00
2017-11-28T05:25:27.765Z,3.57
2017-11-28T05:27:59.462Z,3.93
2017-11-28T05:30:31.206Z,4.20
2017-11-28T05:33:03.335Z,4.60
2017-11-28T05:35:35.095Z,3.90
2017-11-28T05:38:07.536Z,4.00
2017-11-28T05:40:38.949Z,3.10
2017-11-28T05:43:10.931Z,4.63
2017-11-28T05:45:42.917Z,3.33
2017-11-28T05:48:14.859Z,3.17
2017-11-28T05:50:46.278Z,4.87
2017-11-28T05:53:17.735Z,4.30
2017-11-28T05:55:49.444Z,4.27
2017-11-28T05:58:20.901Z,3.53
2017-11-28T06:00:53.131Z,3.80
2017-11-28T06:03:24.915Z,3.50
2017-11-28T06:05:57.757Z,3.90
2017-11-28T06:08:29.294Z,4.23
2017-11-28T06:11:01.276Z,3.70
2017-11-28T06:13:33.630Z,3.00
2017-11-28T06:16:06.081Z,4.10
2017-11-28T06:18:39.257Z,4.00
2017-11-28T06:21:11.473Z,3.37
2017-11-28T06:23:43.950Z,4.20
2017-11-28T06:26:15.691Z,3.30
2017-11-28T06:28:47.239Z,3.60
2017-11-28T06:31:18.687Z,3.20
2017-11-28T06:33:50.324Z,2.73
2017-11-28T06:36:22.137Z,3.20
2017-11-28T06:38:53.651Z,1.67
2017-11-28T06:41:25.105Z,1.87
2017-11-28T06:43:57.114Z,1.60
2017-11-28T06:46:28.925Z,1.40
2017-11-28T06:49:00.502Z,2.37
2017-11-28T06:51:32.417Z,1.83
2017-11-28T06:54:05.803Z,2.10
2017-11-28T06:56:38.042Z,1.57
2017-11-28T06:59:09.518Z,1.87
2017-11-28T07:01:41.120Z,1.70
2017-11-28T07:06:48.455Z,2.10
2017-11-28T07:09:19.906Z,1.57
2017-11-28T07:11:51.871Z,1.20
2017-11-28T07:14:23.291Z,1.30
2017-11-28T07:16:54.721Z,1.90
2017-11-28T07:19:26.624Z,2.07
2017-11-28T07:21:58.036Z,1.90
2017-11-28T07:24:29.688Z,2.20
2017-11-28T07:27:01.346Z,2.00
2017-11-28T07:29:33.869Z,1.93
2017-11-28T07:32:06.112Z,2.30
2017-11-28T07:34:37.645Z,2.53
2017-11-28T07:37:09.401Z,1.93
2017-11-28T07:39:41.060Z,2.13
2017-11-28T07:42:13.208Z,2.30
2017-11-28T07:44:44.928Z,2.60
2017-11-28T07:47:16.397Z,2.40
2017-11-28T07:49:47.869Z,2.50
2017-11-28T07:52:19.357Z,2.23
2017-11-28T07:54:50.781Z,2.60
2017-11-28T07:57:23.309Z,2.00
2017-11-28T07:59:54.764Z,1.70
2017-11-28T08:02:26.809Z,1.53
2017-11-28T08:04:58.225Z,2.03
2017-11-28T08:07:30.003Z,1.80
2017-11-28T08:10:02.645Z,2.03
2017-11-28T08:12:34.100Z,2.00
2017-11-28T08:15:05.583Z,1.90
2017-11-28T08:17:37.082Z,1.57
2017-11-28T08:20:08.645Z,1.67
2017-11-28T08:22:40.517Z,1.70
2017-11-28T08:25:12.079Z,1.80
2017-11-28T08:27:43.609Z,1.70
2017-11-28T08:30:15.358Z,1.83
2017-11-28T08:32:48.155Z,1.63
2017-11-28T08:35:20.132Z,2.10
2017-11-28T08:37:52.987Z,1.37
2017-11-28T08:40:25.735Z,2.10
2017-11-28T08:42:57.292Z,1.57
2017-11-28T08:45:29.251Z,1.30
2017-11-28T08:48:00.939Z,1.20
2017-11-28T08:50:33.962Z,1.13
2017-11-28T08:53:05.707Z,1.40
2017-11-28T08:55:38.206Z,1.30
2017-11-28T09:00:47.169Z,2.00
2017-11-28T09:03:18.592Z,1.63
2017-11-28T09:05:52.003Z,1.40
2017-11-28T09:08:24.181Z,1.33
2017-11-28T09:10:55.640Z,1.37
2017-11-28T09:13:27.090Z,1.10
2017-11-28T09:15:58.933Z,1.23
2017-11-28T09:18:32.180Z,1.10
2017-11-28T09:21:04.001Z,1.10
2017-11-28T09:23:35.575Z,0.63
2017-11-28T09:26:07.193Z,0.80
2017-11-28T09:28:40.124Z,0.80
2017-11-28T09:31:11.814Z,0.70
2017-11-28T09:33:44.284Z,0.77
2017-11-28T09:36:16.275Z,0.73
2017-11-28T09:38:47.998Z,0.60
2017-11-28T09:41:33.612Z,0.90
2017-11-28T09:44:44.269Z,0.87
2017-11-28T09:47:35.460Z,0.90
2017-11-28T09:50:29.676Z,0.63
2017-11-28T09:53:13.324Z,0.60
2017-11-28T09:56:24.634Z,0.70
2017-11-28T09:59:13.930Z,0.70
2017-11-28T10:01:54.422Z,0.70
2017-11-28T10:04:40.045Z,0.60
2017-11-28T10:07:21.975Z,0.57
2017-11-28T10:10:25.411Z,0.77
2017-11-28T10:13:12.952Z,1.37
2017-11-28T10:16:06.585Z,0.70
2017-11-28T10:19:02.208Z,0.80
2017-11-28T10:21:52.506Z,0.90
2017-11-28T10:24:31.912Z,1.03
2017-11-28T10:27:31.175Z,0.70
2017-11-28T10:33:15.151Z,0.80
2017-11-28T10:36:33.033Z,0.70
2017-11-28T10:39:05.098Z,1.00
2017-11-28T10:41:36.513Z,0.87
2017-11-28T10:44:08.445Z,1.00
2017-11-28T10:46:41.081Z,0.70
2017-11-28T10:49:12.585Z,1.20
2017-11-28T10:51:44.139Z,1.17
2017-11-28T10:54:15.981Z,0.90
2017-11-28T10:56:47.599Z,1.20
2017-11-28T10:59:19.365Z,1.20
2017-11-28T11:01:50.835Z,1.07
2017-11-28T11:04:22.407Z,0.70
2017-11-28T11:06:54.321Z,0.77
2017-11-28T11:09:25.755Z,0.80
2017-11-28T11:11:57.250Z,0.67
2017-11-28T11:14:29.220Z,0.90
2017-11-28T11:17:00.890Z,0.60
2017-11-28T11:19:32.501Z,1.37
2017-11-28T11:22:05.414Z,0.83
2017-11-28T11:24:37.532Z,1.10
2017-11-28T11:27:08.935Z,1.20
2017-11-28T11:29:40.657Z,1.20
2017-11-28T11:32:12.324Z,1.10
2017-11-28T11:34:43.705Z,1.00
2017-11-28T11:37:15.508Z,1.03
2017-11-28T11:39:47.013Z,1.10
2017-11-28T11:42:18.583Z,1.40
2017-11-28T11:44:50.321Z,1.40
2017-11-28T11:47:21.733Z,1.30
2017-11-28T11:49:53.172Z,1.67
2017-11-28T11:52:24.903Z,3.10
2017-11-28T11:54:56.376Z,3.03
2017-11-28T11:57:28.385Z,2.20
2017-11-28T11:59:59.800Z,2.40
2017-11-28T12:02:31.789Z,2.20
2017-11-28T12:05:03.855Z,2.23
2017-11-28T12:07:35.587Z,1.83
2017-11-28T12:10:07.751Z,2.37
2017-11-28T12:12:39.318Z,2.30
2017-11-28T12:15:10.950Z,2.73
2017-11-28T12:17:42.498Z,2.30
2017-11-28T12:20:14.469Z,2.90
2017-11-28T12:22:46.269Z,2.97
2017-11-28T12:25:17.804Z,2.83
2017-11-28T12:27:50.159Z,3.20
2017-11-28T12:30:22.074Z,2.80
2017-11-28T12:32:53.569Z,2.50
2017-11-28T12:35:25.689Z,3.27
2017-11-28T12:37:57.182Z,3.97
2017-11-28T12:40:29.287Z,3.73
2017-11-28T12:43:01.639Z,4.33
2017-11-28T12:45:33.236Z,4.67
2017-11-28T12:48:06.259Z,3.90
2017-11-28T12:50:38.128Z,3.57
2017-11-28T12:53:09.874Z,4.47
2017-11-28T12:55:41.369Z,3.33
2017-11-28T12:58:14.757Z,2.97
2017-11-28T13:00:46.583Z,3.43
2017-11-28T13:03:18.075Z,4.10
2017-11-28T13:05:50.175Z,4.63
2017-11-28T13:08:22.013Z,3.80
2017-11-28T13:10:53.709Z,4.17
2017-11-28T13:13:26.309Z,3.90
2017-11-28T13:15:58.130Z,3.70
2017-11-28T13:18:30.109Z,4.70
2017-11-28T13:21:02.309Z,4.77
2017-11-28T13:23:35.730Z,5.60
2017-11-28T13:26:07.736Z,4.70
2017-11-28T13:28:39.526Z,3.43
2017-11-28T13:31:11.626Z,3.70
2017-11-28T13:33:43.170Z,3.80
2017-11-28T13:36:15.824Z,3.27
2017-11-28T13:38:47.513Z,3.73
2017-11-28T13:41:20.030Z,3.83
2017-11-28T13:43:51.859Z,3.30
2017-11-28T13:49:19.856Z,2.47
2017-11-28T13:51:51.973Z,2.27
2017-11-28T13:54:23.704Z,2.53
2017-11-28T13:56:56.187Z,2.77
2017-11-28T13:59:27.927Z,2.20
2017-11-28T14:01:59.595Z,2.83
2017-11-28T14:04:31.853Z,2.93
2017-11-28T14:07:03.901Z,2.40
2017-11-28T14:09:36.496Z,2.77
2017-11-28T14:12:08.835Z,2.30
2017-11-28T14:14:40.594Z,3.33
2017-11-28T14:17:12.983Z,2.53
2017-11-28T14:19:45.452Z,2.10
2017-11-28T14:22:17.524Z,2.13
2017-11-28T14:24:49.708Z,2.30
2017-11-28T14:27:21.888Z,2.10
2017-11-28T14:29:53.945Z,2.50
2017-11-28T14:32:26.784Z,2.87
2017-11-28T14:34:58.770Z,3.03
2017-11-28T14:37:30.891Z,3.30
2017-11-28T14:40:04.568Z,3.60
2017-11-28T14:42:36.772Z,3.30
2017-11-28T14:45:08.859Z,3.30
2017-11-28T14:47:41.884Z,2.87
2017-11-28T14:50:14.570Z,2.53
2017-11-28T14:52:47.181Z,4.00
2017-11-28T14:55:23.067Z,2.83
2017-11-28T14:57:56.197Z,2.57
2017-11-28T15:01:05.305Z,2.80
2017-11-28T15:03:37.797Z,1.73
2017-11-28T15:06:14.161Z,1.60
2017-11-28T15:08:50.662Z,1.37
2017-11-28T15:11:22.873Z,1.50
2017-11-28T15:13:59.050Z,1.77
2017-11-28T15:16:35.788Z,1.60
2017-11-28T15:19:08.919Z,1.80
2017-11-28T15:21:41.340Z,1.60
2017-11-28T15:24:16.766Z,1.30
2017-11-28T15:26:48.928Z,1.30
2017-11-28T15:29:21.161Z,1.50
2017-11-28T15:31:53.276Z,1.50
2017-11-28T15:34:32.692Z,1.27
2017-11-28T15:37:05.000Z,1.87
2017-11-28T15:39:36.937Z,2.00
2017-11-28T15:42:10.208Z,1.73
2017-11-28T15:44:42.139Z,1.70
2017-11-28T15:47:14.330Z,1.70
2017-11-28T15:49:47.122Z,1.57
2017-11-28T15:52:19.237Z,1.30
2017-11-28T15:54:52.043Z,1.60
2017-11-28T15:57:24.374Z,2.10
2017-11-28T15:59:56.583Z,2.63
2017-11-28T16:02:29.707Z,3.57
2017-11-28T16:05:07.556Z,2.20
2017-11-28T16:07:43.967Z,1.60
2017-11-28T16:10:16.885Z,2.73
2017-11-28T16:12:48.802Z,1.30
2017-11-28T16:15:21.183Z,1.50
2017-11-28T16:17:54.949Z,1.70
2017-11-28T16:20:27.137Z,3.40
2017-11-28T16:22:59.359Z,1.77
2017-11-28T16:25:32.411Z,1.60
2017-11-28T16:28:07.378Z,2.00
2017-11-28T16:30:39.588Z,2.10
2017-11-28T16:33:11.611Z,2.27
2017-11-28T16:35:43.897Z,2.03
2017-11-28T16:38:16.277Z,1.73
2017-11-28T16:40:48.897Z,7.53
2017-11-28T16:43:22.185Z,3.67
2017-11-28T16:45:54.178Z,4.17
2017-11-28T16:48:26.065Z,4.50
2017-11-28T16:50:57.985Z,3.80
2017-11-28T16:53:30.776Z,3.47
2017-11-28T16:56:05.423Z,3.20
2017-11-28T16:58:38.236Z,3.00
2017-11-28T17:01:10.567Z,3.47
2017-11-28T17:03:42.802Z,3.07
2017-11-28T17:06:16.167Z,2.60
2017-11-28T17:08:49.187Z,2.70
2017-11-28T17:11:21.252Z,2.47
2017-11-28T17:14:00.026Z,2.30
2017-11-28T17:16:33.848Z,2.50
2017-11-28T17:19:06.465Z,2.47
2017-11-28T17:21:45.962Z,2.73
2017-11-28T17:24:31.327Z,2.00
2017-11-28T17:27:03.761Z,2.23
2017-11-28T17:29:36.023Z,2.27
2017-11-28T17:32:08.078Z,2.40
2017-11-28T17:34:41.274Z,2.30
2017-11-28T17:37:13.681Z,3.40
2017-11-28T17:39:46.896Z,2.67
2017-11-28T17:42:19.097Z,2.60
2017-11-28T17:44:51.355Z,3.00
2017-11-28T17:47:23.234Z,2.77
2017-11-28T17:49:55.506Z,2.50
2017-11-28T17:52:27.426Z,3.73
2017-11-28T17:54:59.896Z,3.77
2017-11-28T17:57:32.432Z,4.20
2017-11-28T18:00:05.826Z,3.33
2017-11-28T18:02:39.018Z,3.97
2017-11-28T18:05:11.935Z,5.10
2017-11-28T18:07:43.881Z,5.80
2017-11-28T18:10:16.971Z,6.23
2017-11-28T18:12:48.908Z,7.37
2017-11-28T18:15:21.818Z,6.60
2017-11-28T18:17:53.804Z,5.30
2017-11-28T18:20:26.044Z,4.87
2017-11-28T18:22:58.212Z,5.40
2017-11-28T18:25:31.018Z,4.40
2017-11-28T18:28:03.955Z,3.80
2017-11-28T18:30:36.290Z,4.50
2017-11-28T18:33:08.520Z,4.17
2017-11-28T18:35:40.651Z,3.47
2017-11-28T18:38:13.558Z,3.83
2017-11-28T18:40:45.801Z,4.37
2017-11-28T18:43:17.663Z,4.50
2017-11-28T18:45:50.427Z,5.00
2017-11-28T18:48:22.491Z,4.13
2017-11-28T18:50:54.448Z,4.10
2017-11-28T18:53:26.362Z,3.97
2017-11-28T18:55:58.660Z,3.90
2017-11-28T18:58:31.869Z,4.47
2017-11-28T19:01:05.931Z,4.10
2017-11-28T19:03:40.915Z,4.40
2017-11-28T19:06:14.533Z,4.97
2017-11-28T19:08:45.954Z,4.13
2017-11-28T19:11:17.406Z,4.70
2017-11-28T19:13:49.122Z,4.83
2017-11-28T19:16:20.729Z,5.53
2017-11-28T19:18:52.337Z,5.17
2017-11-28T19:21:24.139Z,5.07
2017-11-28T19:23:55.594Z,4.87
2017-11-28T19:26:27.719Z,5.23
2017-11-28T19:28:59.153Z,5.00
2017-11-28T19:31:30.776Z,5.27
2017-11-28T19:34:04.756Z,5.23
2017-11-28T19:36:37.606Z,4.60
2017-11-28T19:39:09.007Z,5.30
2017-11-28T19:41:41.646Z,6.50
2017-11-28T19:44:13.731Z,6.43
2017-11-28T19:46:45.271Z,6.30
2017-11-28T19:49:30.852Z,6.80
2017-11-28T19:52:11.277Z,5.97
2017-11-28T19:54:43.930Z,6.27
2017-11-28T19:57:15.633Z,5.93
2017-11-28T19:59:47.478Z,5.30
2017-11-28T20:02:21.586Z,4.70
2017-11-28T20:04:53.187Z,5.43
2017-11-28T20:07:25.688Z,4.33
2017-11-28T20:09:57.628Z,4.60
2017-11-28T20:12:29.317Z,4.87
2017-11-28T20:15:01.334Z,5.63
2017-11-28T20:17:33.030Z,4.90
2017-11-28T20:20:09.292Z,4.83
2017-11-28T20:22:40.660Z,5.13
2017-11-28T20:25:13.614Z,5.87
2017-11-28T20:27:45.105Z,5.20
2017-11-28T20:30:16.653Z,6.23
2017-11-28T20:32:55.660Z,6.37
2017-11-28T20:38:25.114Z,6.47
2017-11-28T20:40:56.507Z,6.63
2017-11-28T20:43:27.941Z,5.90
2017-11-28T20:45:59.736Z,7.40
2017-11-28T20:48:31.392Z,6.50
2017-11-28T20:51:04.823Z,7.10
2017-11-28T20:53:36.448Z,5.30
2017-11-28T20:56:08.025Z,5.90
2017-11-28T20:58:39.388Z,5.17
2017-11-28T21:01:11.113Z,5.23
2017-11-28T21:03:42.887Z,6.00
2017-11-28T21:06:14.232Z,5.67
2017-11-28T21:08:45.866Z,6.43
2017-11-28T21:11:17.653Z,6.73
2017-11-28T21:13:49.127Z,6.97
2017-11-28T21:16:20.797Z,7.00
2017-11-28T21:18:52.179Z,7.00
2017-11-28T21:21:23.866Z,7.07
2017-11-28T21:23:55.233Z,7.97
2017-11-28T21:26:26.704Z,7.00
2017-11-28T21:28:58.429Z,8.10
2017-11-28T21:31:30.543Z,6.90
2017-11-28T21:34:03.792Z,7.50
2017-11-28T21:36:35.473Z,8.73
2017-11-28T21:39:07.473Z,7.03
2017-11-28T21:41:38.913Z,7.97
2017-11-28T21:44:11.740Z,7.00
2017-11-28T21:46:43.144Z,6.00
2017-11-28T21:49:14.557Z,6.90
2017-11-28T21:51:46.012Z,6.10
2017-11-28T21:54:17.826Z,6.70
2017-11-28T21:56:49.385Z,7.80
2017-11-28T21:59:20.744Z,7.73
2017-11-28T22:01:52.401Z,7.63
2017-11-28T22:04:23.791Z,9.63
2017-11-28T22:06:55.129Z,8.60
2017-11-28T22:09:26.854Z,9.13
2017-11-28T22:11:58.529Z,8.37
2017-11-28T22:14:30.339Z,8.77
2017-11-28T22:17:01.910Z,7.17
2017-11-28T22:19:33.336Z,7.00
2017-11-28T22:22:06.752Z,7.90
2017-11-28T22:24:38.233Z,8.70
2017-11-28T22:27:09.915Z,9.67
2017-11-28T22:29:41.285Z,10.63
2017-11-28T22:32:14.349Z,10.77
2017-11-28T22:34:46.471Z,10.43
2017-11-28T22:37:17.970Z,8.07
2017-11-28T22:39:50.780Z,8.23
2017-11-28T22:42:24.082Z,9.03
2017-11-28T22:44:57.816Z,7.50
2017-11-28T22:47:31.006Z,6.80
2017-11-28T22:50:05.445Z,6.40
2017-11-28T22:52:37.043Z,6.50
2017-11-28T22:55:14.403Z,5.90
2017-11-28T22:57:46.128Z,7.07
2017-11-28T23:00:18.430Z,6.67
2017-11-28T23:03:53.030Z,8.00
2017-11-28T23:06:24.380Z,7.27
2017-11-28T23:08:55.732Z,5.70
2017-11-28T23:11:27.371Z,4.60
2017-11-28T23:14:02.950Z,5.70
2017-11-28T23:16:34.725Z,5.97
2017-11-28T23:19:07.081Z,4.43
2017-11-28T23:21:38.622Z,4.70
2017-11-28T23:24:10.481Z,4.43
2017-11-28T23:26:41.889Z,4.60
2017-11-28T23:29:13.303Z,5.13
2017-11-28T23:31:44.966Z,4.73
2017-11-28T23:34:16.480Z,4.30
2017-11-28T23:36:47.809Z,4.40
2017-11-28T23:39:19.581Z,3.90
2017-11-28T23:41:51.088Z,3.43
2017-11-28T23:44:22.501Z,4.10
2017-11-28T23:46:54.114Z,3.60
2017-11-28T23:49:25.539Z,3.13
2017-11-28T23:51:57.279Z,3.60
2017-11-28T23:54:28.659Z,4.10
2017-11-28T23:57:00.006Z,3.30
2017-11-28T23:59:31.776Z,3.70
